Meteorología y climatología de Navarra
Datos de la estación - Meteo Navarra

Estación de Carcastillo (La Oliva) GN

Altitud 343 m.


Datos desde el 23/05/2020 hasta el 24/05/2020 en horario solar
Los datos son PROVISIONALES

Anterior Página 1 de 1 Siguiente Descargar: Formato para Excel 2000 o superior   Formato csv   Formato para OpenOffice Calc
Fecha Temperatura Humedad relativa Radiación global Insolación Precipitación Vel. viento 10 m Vel. viento 10 m Dir. viento 10 m
ºC % W/m² s l/m² m/s km/h º
23/05/2020 0:00 19.8 76 0.0 0 0.0 3.2 11.5 277
23/05/2020 0:10 18.9 82 0.0 0 0.0 3.1 11.3 274
23/05/2020 0:20 18.4 84 0.0 0 0.0 2.6 9.2 265
23/05/2020 0:30 18.2 85 0.0 0 0.0 1.6 5.8 232
23/05/2020 0:40 18.1 85 0.0 0 0.0 1.9 6.7 243
23/05/2020 0:50 17.9 85 0.0 0 0.0 1.7 6.1 251
23/05/2020 1:00 17.6 86 0.0 0 0.0 2.6 9.4 251
23/05/2020 1:10 17.3 86 0.0 0 0.0 2.9 10.3 262
23/05/2020 1:20 17.2 87 0.0 0 0.0 2.7 9.6 264
23/05/2020 1:30 17.0 88 0.0 0 0.0 2.8 9.9 258
23/05/2020 1:40 16.8 88 0.0 0 0.0 2.7 9.5 265
23/05/2020 1:50 16.8 88 0.0 0 0.0 2.4 8.7 263
23/05/2020 2:00 16.6 88 0.0 0 0.0 2.8 10.2 255
23/05/2020 2:10 16.6 87 0.0 0 0.0 2.9 10.3 254
23/05/2020 2:20 16.6 87 0.0 0 0.0 3.0 10.6 257
23/05/2020 2:30 16.5 86 0.0 0 0.0 2.5 9.0 258
23/05/2020 2:40 16.5 86 0.0 0 0.0 2.4 8.6 252
23/05/2020 2:50 16.5 86 0.0 0 0.0 2.5 9.1 265
23/05/2020 3:00 16.4 86 0.0 0 0.0 2.0 7.1 259
23/05/2020 3:10 16.3 86 0.0 0 0.0 1.9 6.7 253
23/05/2020 3:20 16.1 87 0.0 0 0.0 1.8 6.4 249
23/05/2020 3:30 16.0 87 0.0 0 0.0 1.1 3.9 226
23/05/2020 3:40 15.8 88 0.0 0 0.0 1.7 6.0 249
23/05/2020 3:50 15.8 88 0.0 0 0.0 0.4 1.3 232
23/05/2020 4:00 15.6 89 0.0 0 0.0 1.9 6.8 258
23/05/2020 4:10 15.5 90 0.0 0 0.0 2.0 7.1 264
23/05/2020 4:20 15.3 90 0.0 0 0.0 2.0 7.1 275
23/05/2020 4:30 15.4 91 0.0 0 0.0 2.2 7.8 269
23/05/2020 4:40 15.3 91 0.0 0 0.0 1.8 6.5 274
23/05/2020 4:50 15.2 91 0.0 0 0.0 1.5 5.2 271
23/05/2020 5:00 15.2 91 0.0 0 0.0 1.9 6.9 253
23/05/2020 5:10 15.1 91 0.0 0 0.0 2.2 7.8 250
23/05/2020 5:20 15.2 91 16.0 0 0.0 2.1 7.4 251
23/05/2020 5:30 15.3 90 35.2 0 0.0 1.5 5.5 253
23/05/2020 5:40 15.4 90 48.9 0 0.0 1.7 6.1 259
23/05/2020 5:50 15.5 89 79.2 152 0.0 2.0 7.3 268
23/05/2020 6:00 15.6 89 116.5 318 0.0 2.3 8.4 274
23/05/2020 6:10 15.9 89 98.8 110 0.0 1.8 6.3 270
23/05/2020 6:20 16.1 87 165.7 380 0.0 2.2 7.9 274
23/05/2020 6:30 16.6 86 241.7 600 0.0 2.4 8.6 273
23/05/2020 6:40 17.0 84 262.8 600 0.0 2.2 7.8 273
23/05/2020 6:50 17.3 83 214.1 328 0.0 2.3 8.4 279
23/05/2020 7:00 17.6 81 293.5 586 0.0 2.1 7.5 285
23/05/2020 7:10 18.3 79 338.2 600 0.0 2.1 7.6 293
23/05/2020 7:20 18.6 76 375.2 600 0.0 2.6 9.2 307
23/05/2020 7:30 19.1 74 406.4 522 0.0 2.8 10.2 312
23/05/2020 7:40 19.3 72 305.3 230 0.0 2.5 9.1 310
23/05/2020 7:50 19.7 72 438.3 490 0.0 2.6 9.3 302
23/05/2020 8:00 19.8 70 460.5 478 0.0 3.0 10.8 300
23/05/2020 8:10 20.3 70 581.6 600 0.0 3.3 12.0 310
23/05/2020 8:20 20.6 68 599.0 592 0.0 3.6 12.8 291
23/05/2020 8:30 20.9 67 559.5 476 0.0 3.0 10.9 296
23/05/2020 8:40 21.5 65 475.1 342 0.0 3.6 13.1 302
23/05/2020 8:50 21.4 64 599.9 430 0.0 4.4 15.7 314
23/05/2020 9:00 21.8 62 410.3 160 0.0 3.7 13.3 321
23/05/2020 9:10 22.2 62 581.8 390 0.0 3.3 11.7 307
23/05/2020 9:20 22.3 61 427.6 318 0.0 3.4 12.2 301
23/05/2020 9:30 22.0 61 357.0 50 0.0 4.0 14.5 298
23/05/2020 9:40 21.9 62 676.3 522 0.0 3.6 13.1 297
23/05/2020 9:50 22.5 61 844.0 532 0.0 4.4 15.9 300
23/05/2020 10:00 22.7 60 882.0 600 0.0 4.5 16.1 295
23/05/2020 10:10 22.8 60 786.3 540 0.0 3.7 13.4 295
23/05/2020 10:20 22.9 60 857.0 586 0.0 5.2 18.7 310
23/05/2020 10:30 23.0 59 842.0 600 0.0 5.0 18.1 302
23/05/2020 10:40 23.0 59 896.0 600 0.0 4.6 16.5 312
23/05/2020 10:50 23.3 58 884.0 556 0.0 5.0 17.9 311
23/05/2020 11:00 23.2 58 964.0 600 0.0 4.9 17.7 323
23/05/2020 11:10 23.5 57 978.0 600 0.0 5.0 17.9 323
23/05/2020 11:20 23.5 55 1042.0 586 0.0 4.7 16.7 306
23/05/2020 11:30 23.4 56 952.0 546 0.0 5.3 19.1 302
23/05/2020 11:40 23.2 56 724.8 360 0.0 5.2 18.8 306
23/05/2020 11:50 23.4 55 1037.0 588 0.0 5.7 20.4 315
23/05/2020 12:00 23.5 54 987.0 600 0.0 5.5 19.7 307
23/05/2020 12:10 23.1 54 1002.0 600 0.0 6.3 22.7 310
23/05/2020 12:20 22.8 55 975.0 600 0.0 6.1 22.0 313
23/05/2020 12:30 23.0 54 976.0 600 0.0 5.2 18.6 319
23/05/2020 12:40 23.1 53 976.0 600 0.0 4.7 16.8 335
23/05/2020 12:50 23.3 52 961.0 600 0.0 4.8 17.4 333
23/05/2020 13:00 23.3 51 953.0 600 0.0 5.0 17.9 324
23/05/2020 13:10 23.3 51 944.0 600 0.0 5.0 18.0 320
23/05/2020 13:20 23.5 50 933.0 600 0.0 4.6 16.6 318
23/05/2020 13:30 23.6 49 921.0 600 0.0 4.1 14.7 334
23/05/2020 13:40 24.0 48 910.0 600 0.0 4.7 16.8 325
23/05/2020 13:50 23.6 48 897.0 600 0.0 4.5 16.1 329
23/05/2020 14:00 23.5 48 883.0 600 0.0 5.5 19.8 312
23/05/2020 14:10 23.7 47 867.0 600 0.0 5.2 18.8 311
23/05/2020 14:20 23.7 48 799.2 564 0.0 5.4 19.4 310
23/05/2020 14:30 23.5 49 742.2 562 0.0 4.8 17.4 303
23/05/2020 14:40 23.3 50 784.0 598 0.0 5.4 19.3 297
23/05/2020 14:50 23.0 51 794.9 600 0.0 6.2 22.4 307
23/05/2020 15:00 22.7 51 757.1 600 0.0 6.2 22.4 314
23/05/2020 15:10 22.4 52 726.5 600 0.0 6.0 21.7 312
23/05/2020 15:20 22.2 53 699.9 600 0.0 5.4 19.5 313
23/05/2020 15:30 21.9 54 671.2 600 0.0 5.5 19.9 307
23/05/2020 15:40 21.7 54 643.7 600 0.0 5.6 20.0 310
23/05/2020 15:50 21.5 53 616.3 600 0.0 6.3 22.8 315
23/05/2020 16:00 21.4 53 587.2 600 0.0 5.6 20.1 315
23/05/2020 16:10 21.3 53 557.4 600 0.0 5.8 21.0 320
23/05/2020 16:20 21.1 54 526.0 600 0.0 5.2 18.5 312
23/05/2020 16:30 20.7 54 496.9 600 0.0 5.9 21.3 321
23/05/2020 16:40 20.8 54 465.1 600 0.0 4.9 17.5 322
23/05/2020 16:50 20.7 54 430.9 600 0.0 5.3 19.2 323
23/05/2020 17:00 20.7 54 400.4 600 0.0 4.9 17.6 323
23/05/2020 17:10 20.6 54 367.1 600 0.0 4.3 15.6 329
23/05/2020 17:20 20.6 52 333.6 600 0.0 5.1 18.5 350
23/05/2020 17:30 20.6 52 303.6 600 0.0 4.2 14.9 337
23/05/2020 17:40 20.3 52 269.9 600 0.0 4.7 16.7 345
23/05/2020 17:50 20.1 55 240.7 600 0.0 4.0 14.3 314
23/05/2020 18:00 19.5 56 208.4 600 0.0 4.3 15.3 306
23/05/2020 18:10 19.3 57 177.7 600 0.0 3.5 12.6 297
23/05/2020 18:20 18.9 58 147.9 600 0.0 4.8 17.2 299
23/05/2020 18:30 18.1 61 120.1 600 0.0 4.7 17.0 304
23/05/2020 18:40 17.5 63 95.2 600 0.0 5.3 19.0 306
23/05/2020 18:50 16.9 65 73.2 600 0.0 5.2 18.8 306
23/05/2020 19:00 16.7 66 50.6 600 0.0 4.2 14.9 305
23/05/2020 19:10 16.3 67 28.8 110 0.0 4.7 16.7 306
23/05/2020 19:20 15.8 69 0.3 0 0.0 5.0 18.1 309
23/05/2020 19:30 15.5 70 0.0 0 0.0 4.0 14.5 310
23/05/2020 19:40 15.2 71 0.0 0 0.0 3.8 13.8 310
23/05/2020 19:50 15.0 72 0.0 0 0.0 3.9 14.1 308
23/05/2020 20:00 14.9 72 0.0 0 0.0 4.1 14.6 306
23/05/2020 20:10 14.7 73 0.0 0 0.0 3.1 11.1 298
23/05/2020 20:20 14.6 73 0.0 0 0.0 3.5 12.7 301
23/05/2020 20:30 14.5 74 0.0 0 0.0 3.6 13.0 300
23/05/2020 20:40 14.4 74 0.0 0 0.0 2.9 10.6 294
23/05/2020 20:50 14.2 75 0.0 0 0.0 3.3 11.7 299
23/05/2020 21:00 14.1 75 0.0 0 0.0 3.2 11.4 302
23/05/2020 21:10 14.0 76 0.0 0 0.0 3.0 10.8 293
23/05/2020 21:20 13.9 76 0.0 0 0.0 3.6 13.0 293
23/05/2020 21:30 13.9 76 0.0 0 0.0 3.4 12.3 285
23/05/2020 21:40 13.8 77 0.0 0 0.0 3.8 13.7 285
23/05/2020 21:50 13.7 78 0.0 0 0.0 3.2 11.3 292
23/05/2020 22:00 13.6 78 0.0 0 0.0 3.3 11.9 295
23/05/2020 22:10 13.5 78 0.0 0 0.0 3.6 12.9 294
23/05/2020 22:20 13.5 78 0.0 0 0.0 3.2 11.5 293
23/05/2020 22:30 13.2 78 0.0 0 0.0 3.3 11.7 295
23/05/2020 22:40 13.1 78 0.0 0 0.0 3.2 11.6 294
23/05/2020 22:50 13.0 78 0.0 0 0.0 3.3 11.8 289
23/05/2020 23:00 13.0 78 0.0 0 0.0 3.4 12.3 283
23/05/2020 23:10 12.9 78 0.0 0 0.0 3.3 11.9 282
23/05/2020 23:20 12.8 78 0.0 0 0.0 3.3 12.0 276
23/05/2020 23:30 12.5 77 0.0 0 0.0 4.0 14.2 276
23/05/2020 23:40 12.2 77 0.0 0 0.0 4.2 15.1 276
23/05/2020 23:50 12.0 78 0.0 0 0.0 4.1 14.8 276
Anterior Página 1 de 1 Siguiente

NOTA: Tipo de datos según el color:
   - Valores diarios o 10 minutos correctos
   - Valores diarios calculados a partir de un número de datos 10 minutos menor que 144 y mayor que 120, o de un número de datos semihorarios menor que 48 y mayor que 40 (caso de las estaciones de INTIA y del Ministerio)
   - Valores diez minutos estimados


Contacto        Enlaces        Aviso legal